Latest Weather Observations for Century Mine

IDQ60801

Issued at 12:05 pm EST Saturday 19 April 2014 (issued every 30 minutes, with the page automatically refreshed every 10 minutes)

About weather observations | Map of weather stations | Latest weather observations for QLD | Other Formats
Station Details ID: 029167 Name: CENTURY MINE Lat: -18.76 Lon: 138.71 Height: 126.8 m
Data from the previous 72 hours. | See also: Recent months at Century Mine
Date/Time
EST
Temp
°C
App
Temp
°C
Dew
Point
Rel
Hum
%
Delta-T
°C
Wind Press
QNH
hPa
Press
MSL
hPa
Rain
since 9 am
mm
Dir
 
Spd
km/h
Gust
km/h
Spd
kts
Gust
kts
19/12:00pm 33.2 27.6 1.1 13 16.0 ESE 20 32 11 17 1014.1 1013.4 0.0
19/11:30am 33.1 27.1 1.0 13 16.0 SE 22 35 12 19 1014.7 - 0.0
19/11:00am 32.5 26.8 0.6 13 15.7 ESE 20 32 11 17 1015.0 - 0.0
19/10:30am 31.3 25.1 -0.4 13 15.3 ESE 22 37 12 20 1015.4 - 0.0
19/10:00am 30.2 23.1 -1.2 13 14.8 ESE 26 35 14 19 1015.6 - 0.0
19/09:30am 29.2 23.7 0.8 16 13.8 SE 19 32 10 17 1015.6 - 0.0
19/09:00am 27.7 23.4 1.2 18 12.8 SE 13 20 7 11 1015.5 1014.8 0.0
19/08:30am 24.6 21.7 2.7 24 10.6 S 7 13 4 7 1015.4 - 0.0
19/08:00am 22.4 19.4 4.0 30 9.0 SSW 9 13 5 7 1015.2 - 0.0
19/07:30am 18.8 16.4 4.2 38 7.0 S 6 7 3 4 1015.1 - 0.0
19/07:00am 18.7 15.9 3.3 36 7.2 S 7 7 4 4 1014.8 - 0.0
19/06:30am 19.4 16.4 2.3 32 7.9 SSW 7 9 4 5 1014.4 - 0.0
19/06:00am 20.5 17.2 2.3 30 8.5 SSW 9 11 5 6 1014.3 1013.6 0.0
19/05:30am 21.1 17.8 2.4 29 8.8 SSW 9 11 5 6 1014.1 - 0.0
19/05:00am 21.8 18.6 3.0 29 9.0 SSW 9 13 5 7 1013.9 - 0.0
19/04:30am 20.9 17.8 3.6 32 8.3 SSW 9 11 5 6 1013.7 - 0.0
19/04:00am 21.7 18.7 3.9 31 8.7 S 9 11 5 6 1013.6 - 0.0
19/03:30am 22.4 18.9 3.5 29 9.2 S 11 13 6 7 1013.6 - 0.0
19/03:00am 22.3 19.4 4.4 31 8.8 S 9 11 5 6 1013.7 1013.0 0.0
19/02:30am 22.6 20.1 4.6 31 8.9 S 7 9 4 5 1013.8 - 0.0
19/02:00am 22.6 20.1 4.6 31 8.9 S 7 9 4 5 1013.9 - 0.0
19/01:30am 22.7 20.4 5.6 33 8.6 S 7 11 4 6 1014.0 - 0.0
19/01:00am 23.6 21.6 6.4 33 8.9 SSE 6 11 3 6 1014.4 - 0.0
19/12:30am 25.2 22.9 4.9 27 10.3 SE 6 9 3 5 1014.5 - 0.0
19/12:00am 26.0 23.2 5.0 26 10.7 S 9 11 5 6 1014.5 1013.8 0.0
 
Date/Time
EST
Temp
°C
App
Temp
°C
Dew
Point
Rel
Hum
%
Delta-T
°C
Wind Press
QNH
hPa
Press
MSL
hPa
Rain
since 9 am
mm
Dir
 
Spd
km/h
Gust
km/h
Spd
kts
Gust
kts
18/11:30pm 25.3 22.9 7.0 31 9.6 SSW 9 15 5 8 1014.5 - 0.0
18/11:00pm 21.4 20.6 11.7 54 5.4 SSW 7 9 4 5 1014.4 - 0.0
18/10:30pm 21.6 20.8 11.6 53 5.6 SSW 7 7 4 4 1014.5 - 0.0
18/10:00pm 21.9 21.3 12.2 54 5.5 SSW 7 7 4 4 1014.5 - 0.0
18/09:30pm 22.5 21.9 11.6 50 6.1 SSW 6 7 3 4 1014.5 - 0.0
18/09:00pm 23.3 22.2 10.0 43 7.3 S 6 7 3 4 1014.3 1013.6 0.0
18/08:30pm 23.9 22.7 10.2 42 7.6 S 7 9 4 5 1013.9 - 0.0
18/08:00pm 25.1 23.8 9.8 38 8.5 S 7 7 4 4 1013.6 - 0.0
18/07:30pm 25.8 24.2 8.8 34 9.3 S 7 9 4 5 1013.2 - 0.0
18/07:00pm 28.2 26.3 6.9 26 11.4 SSE 6 7 3 4 1012.9 - 0.0
18/06:30pm 30.8 28.6 6.0 21 13.3 SSE 7 9 4 5 1012.5 - 0.0
18/06:00pm 33.2 30.5 5.7 18 14.8 SSE 9 19 5 10 1012.2 1011.5 0.0
18/05:30pm 34.5 32.0 6.7 18 15.3 SSE 9 15 5 8 1011.9 - 0.0
18/05:00pm 35.0 33.2 7.9 19 15.3 ESE 7 13 4 7 1011.8 - 0.0
18/04:30pm 34.2 31.5 7.3 19 14.9 ESE 11 19 6 10 1011.7 - 0.0
18/04:00pm 35.9 34.3 8.7 19 15.6 SE 7 19 4 10 1011.6 - 0.0
18/03:30pm 35.5 32.6 8.3 19 15.4 SSE 13 20 7 11 1011.6 - 0.0
18/03:00pm 35.9 32.0 8.7 19 15.6 E 19 24 10 13 1011.7 1011.1 0.0
18/02:30pm 35.7 31.8 8.5 19 15.5 ESE 19 30 10 16 1012.0 - 0.0
18/02:00pm 35.1 30.8 8.0 19 15.3 E 20 32 11 17 1012.3 - 0.0
18/01:30pm 35.9 31.6 7.0 17 16.1 E 19 30 10 16 1012.7 - 0.0
18/01:00pm 34.9 30.4 6.2 17 15.7 ESE 19 32 10 17 1013.3 - 0.0
18/12:30pm 35.3 30.5 7.4 18 15.6 ESE 22 37 12 20 1013.6 - 0.0
18/12:00pm 34.6 30.1 6.0 17 15.6 SE 19 32 10 17 1014.0 1013.3 0.0
18/11:30am 34.5 29.8 5.9 17 15.6 ESE 20 32 11 17 1014.6 - 0.0
18/11:00am 32.8 27.2 3.7 16 15.1 ESE 22 35 12 19 1015.0 - 0.0
18/10:30am 32.2 26.4 2.3 15 15.1 SE 22 33 12 18 1015.2 - 0.0
18/10:00am 31.3 25.9 2.5 16 14.6 SE 20 30 11 16 1015.4 - 0.0
18/09:30am 30.1 24.8 3.2 18 13.7 SE 20 35 11 19 1015.2 - 0.0
18/09:00am 29.1 23.6 1.6 17 13.5 SE 20 30 11 16 1015.0 1014.3 0.0
18/08:30am 27.2 23.9 4.3 23 11.6 SSE 11 19 6 10 1014.8 - 0.0
18/08:00am 24.8 21.8 6.1 30 9.7 S 11 17 6 9 1014.5 - 0.0
18/07:30am 22.6 19.7 6.4 35 8.3 S 11 15 6 8 1014.3 - 0.0
18/07:00am 21.6 19.0 5.9 36 7.9 SSW 9 11 5 6 1014.1 - 0.0
18/06:30am 21.8 19.3 6.5 37 7.8 S 9 13 5 7 1014.0 - 0.0
18/06:00am 21.9 19.8 6.6 37 7.8 SSW 7 9 4 5 1013.8 1013.1 0.0
18/05:30am 22.5 20.5 7.1 37 8.0 S 7 9 4 5 1013.7 - 0.0
18/05:00am 22.5 20.3 6.3 35 8.3 SSW 7 9 4 5 1013.6 - 0.0
18/04:30am 23.7 21.2 6.5 33 8.9 S 9 13 5 7 1013.5 - 0.0
18/04:00am 23.7 21.7 6.9 34 8.8 S 7 9 4 5 1013.5 - 0.0
18/03:30am 23.9 21.9 7.1 34 8.8 S 7 13 4 7 1013.4 - 0.0
18/03:00am 25.3 22.6 7.4 32 9.5 S 11 15 6 8 1013.2 1012.5 0.0
18/02:30am 25.6 23.0 7.7 32 9.6 S 11 19 6 10 1013.2 - 0.0
18/02:00am 25.0 23.4 8.9 36 8.8 S 7 11 4 6 1013.2 - 0.0
18/01:30am 25.5 24.0 10.5 39 8.4 S 9 15 5 8 1013.3 - 0.0
18/01:00am 23.3 23.3 14.3 57 5.3 SSW 7 13 4 7 1013.7 - 0.0
18/12:30am 23.5 25.1 14.8 58 5.2 CALM 0 2 0 1 1013.9 - 0.0
18/12:00am 23.8 24.2 14.8 57 5.4 S 6 7 3 4 1014.0 1013.3 0.0
 
Date/Time
EST
Temp
°C
App
Temp
°C
Dew
Point
Rel
Hum
%
Delta-T
°C
Wind Press
QNH
hPa
Press
MSL
hPa
Rain
since 9 am
mm
Dir
 
Spd
km/h
Gust
km/h
Spd
kts
Gust
kts
17/11:30pm 23.9 24.2 15.1 58 5.3 SSW 7 9 4 5 1014.1 - 0.0
17/11:00pm 24.5 24.9 13.7 51 6.4 S 4 7 2 4 1014.2 - 0.0
17/10:30pm 25.0 25.0 14.2 51 6.4 S 7 9 4 5 1014.1 - 0.0
17/10:00pm 25.3 25.4 14.4 50 6.5 S 7 9 4 5 1014.1 - 0.0
17/09:30pm 25.5 25.3 14.6 51 6.5 SSW 9 11 5 6 1014.0 - 0.0
17/09:00pm 25.3 25.9 15.3 54 6.1 S 6 7 3 4 1013.9 1013.2 0.0
17/08:30pm 26.0 27.6 14.8 50 6.8 CALM 0 6 0 3 1013.5 - 0.0
17/08:00pm 26.7 27.1 14.8 48 7.2 SE 6 7 3 4 1013.1 - 0.0
17/07:30pm 27.7 28.1 13.6 42 8.4 SE 4 7 2 4 1012.6 - 0.0
17/07:00pm 29.7 29.2 12.2 34 10.3 E 6 7 3 4 1012.4 - 0.0
17/06:30pm 31.7 30.6 12.0 30 11.6 E 9 13 5 7 1012.0 - 0.0
17/06:00pm 32.8 31.1 12.4 29 12.2 ESE 13 17 7 9 1011.6 1010.9 0.0
17/05:30pm 33.3 33.2 13.4 30 12.1 E 6 9 3 5 1011.4 - 0.0
17/05:00pm 34.9 32.6 11.9 24 13.7 ESE 15 22 8 12 1011.1 - 0.0
17/04:30pm 35.3 33.7 12.9 26 13.6 ENE 13 19 7 10 1011.1 - 0.0
17/04:00pm 36.2 34.7 13.0 24 14.2 ESE 13 20 7 11 1011.1 - 0.0
17/03:30pm 35.8 34.0 13.3 26 13.8 E 15 24 8 13 1011.2 - 0.0
17/03:00pm 35.4 33.9 13.0 26 13.6 ESE 13 26 7 14 1011.6 1010.9 0.0
17/02:30pm 35.7 33.1 13.2 26 13.7 E 19 30 10 16 1011.9 - 0.0
17/02:00pm 35.6 33.3 13.1 25 13.7 E 17 32 9 17 1012.2 - 0.0
17/01:30pm 35.8 33.6 13.3 26 13.8 E 17 28 9 15 1012.7 - 0.0
17/01:00pm 35.3 32.8 13.5 27 13.4 E 19 30 10 16 1013.1 - 0.0
17/12:30pm 34.1 31.1 12.4 26 13.0 ENE 20 30 11 16 1013.6 - 0.0
17/12:00pm 33.8 30.3 12.2 27 12.9 E 22 33 12 18 1014.1 1013.4 0.0
17/11:30am 33.5 30.5 12.5 28 12.6 E 20 32 11 17 1014.4 - 0.0
17/11:00am 33.4 30.4 12.4 28 12.6 E 20 32 11 17 1014.8 - 0.0
17/10:30am 32.0 28.6 10.7 27 12.4 SE 19 26 10 14 1015.0 - 0.0
17/10:00am 31.4 28.1 9.6 26 12.4 ESE 17 28 9 15 1015.2 - 0.0
17/09:30am 30.5 27.2 9.4 27 11.9 SE 17 32 9 17 1015.2 - 0.0
17/09:00am 29.6 26.3 8.1 26 11.8 SE 15 28 8 15 1015.0 1014.3 0.0
17/08:30am 28.6 26.5 9.8 31 10.6 SSE 11 17 6 9 1014.9 - 0.0
17/08:00am 26.0 25.3 12.1 42 8.0 S 7 11 4 6 1014.7 - 0.0
17/07:30am 24.3 23.7 13.5 51 6.3 S 9 11 5 6 1014.6 - 0.0
17/07:00am 23.3 23.9 15.9 63 4.5 S 7 9 4 5 1014.4 - 0.0
17/06:30am 23.7 25.1 17.7 69 3.8 S 7 11 4 6 1013.9 - 0.0
17/06:00am 23.3 25.0 18.6 75 3.0 S 7 11 4 6 1013.4 1012.7 0.0
17/05:30am 23.7 25.7 18.8 74 3.1 SSE 6 7 3 4 1013.3 - 0.0
17/05:00am 24.0 26.0 19.1 74 3.1 S 7 9 4 5 1012.9 - 0.0
17/04:30am 23.7 25.6 18.6 73 3.2 S 6 9 3 5 1012.7 - 0.0
17/04:00am 24.1 25.9 18.7 72 3.4 SSE 7 9 4 5 1012.6 - 0.0
17/03:30am 23.8 25.4 17.8 69 3.8 SE 6 7 3 4 1012.7 - 0.0
17/03:00am 24.2 25.5 17.2 65 4.4 S 6 7 3 4 1012.6 1011.9 0.0
17/02:30am 24.1 25.4 17.1 65 4.3 S 6 7 3 4 1012.7 - 0.0
17/02:00am 24.3 26.9 17.5 66 4.3 CALM 0 0 0 0 1012.7 - 0.0
17/01:30am 24.7 26.1 17.7 65 4.4 SW 7 7 4 4 1012.9 - 0.0
17/01:00am 25.4 27.7 17.6 62 4.9 ESE 2 9 1 5 1012.9 - 0.0
17/12:30am 25.4 26.6 18.3 65 4.5 SW 9 11 5 6 1013.0 - 0.0
17/12:00am 24.4 27.0 17.4 65 4.4 CALM 0 0 0 0 1013.0 1012.3 0.0
 
Date/Time
EST
Temp
°C
App
Temp
°C
Dew
Point
Rel
Hum
%
Delta-T
°C
Wind Press
QNH
hPa
Press
MSL
hPa
Rain
since 9 am
mm
Dir
 
Spd
km/h
Gust
km/h
Spd
kts
Gust
kts
16/11:30pm 24.7 26.0 17.2 63 4.7 S 6 7 3 4 1013.0 - 0.0
16/11:00pm 25.1 26.4 17.0 60 5.0 ENE 6 7 3 4 1012.9 - 0.0
16/10:30pm 25.2 27.4 16.6 59 5.3 CALM 0 0 0 0 1012.6 - 0.0
16/10:00pm 25.7 26.6 16.0 55 6.0 NNE 6 13 3 7 1012.6 - 0.0
16/09:30pm 25.9 28.1 16.5 56 5.8 CALM 0 0 0 0 1012.3 - 0.0
16/09:00pm 26.7 28.2 15.7 51 6.8 S 2 6 1 3 1012.0 1011.4 0.0
16/08:30pm 27.2 27.7 15.6 49 7.1 S 7 7 4 4 1011.7 - 0.0
16/08:00pm 28.0 28.7 15.6 46 7.6 S 6 6 3 3 1011.3 - 0.0
16/07:30pm 28.9 29.4 15.1 43 8.5 SSE 6 7 3 4 1011.0 - 0.0
16/07:00pm 30.6 30.8 14.2 36 10.0 SE 6 7 3 4 1010.7 - 0.0
16/06:30pm 32.4 32.0 13.1 31 11.6 ESE 7 9 4 5 1010.5 - 0.0
16/06:00pm 33.5 32.2 12.5 28 12.6 E 11 15 6 8 1010.2 1009.5 0.0
16/05:30pm 35.1 33.9 12.7 26 13.6 E 11 17 6 9 1010.0 - 0.0
16/05:00pm 35.3 34.3 13.5 27 13.4 ESE 11 17 6 9 1009.8 - 0.0
16/04:30pm 35.2 33.8 13.4 27 13.3 ESE 13 19 7 10 1009.8 - 0.0
16/04:00pm 34.7 33.2 13.0 27 13.2 SE 13 20 7 11 1009.8 - 0.0
16/03:30pm 35.7 34.4 13.8 27 13.5 E 13 20 7 11 1009.8 - 0.0
16/03:00pm 34.6 31.5 11.7 25 13.6 ESE 19 24 10 13 1010.2 1009.5 0.0
16/02:30pm 35.7 32.7 12.6 25 14.0 E 20 32 11 17 1010.4 - 0.0
16/02:00pm 35.2 32.3 12.8 26 13.6 ESE 20 30 11 16 1011.0 - 0.0
16/01:30pm 35.3 33.2 13.5 27 13.4 ESE 17 30 9 16 1011.2 - 0.0
16/01:00pm 35.1 33.7 13.3 27 13.3 ESE 13 24 7 13 1011.6 - 0.0
16/12:30pm 34.4 31.6 12.7 27 13.1 E 19 28 10 15 1012.2 - 0.0

Other Formats:

Comma delimited format used in spreadsheet applications
http://www.bom.gov.au/fwo/IDQ60801/IDQ60801.94261.axf

JavaScript Object Notation format (JSON) in row-major order
http://www.bom.gov.au/fwo/IDQ60801/IDQ60801.94261.json